createdAt,value
2023-02-27T00:01:15.662Z,34.01
2023-02-27T00:03:46.785Z,34.05
2023-02-27T00:06:18.162Z,34.00
2023-02-27T00:08:47.160Z,33.88
2023-02-27T00:11:16.257Z,33.87
2023-02-27T00:13:47.060Z,33.78
2023-02-27T00:16:19.358Z,33.72
2023-02-27T00:18:50.259Z,33.62
2023-02-27T00:21:19.301Z,33.58
2023-02-27T00:23:48.042Z,33.56
2023-02-27T00:26:17.027Z,33.38
2023-02-27T00:28:46.636Z,33.24
2023-02-27T00:31:15.309Z,33.19
2023-02-27T00:33:43.970Z,33.09
2023-02-27T00:36:12.626Z,32.99
2023-02-27T00:38:43.387Z,32.89
2023-02-27T00:41:12.039Z,32.82
2023-02-27T00:43:40.711Z,32.89
2023-02-27T00:46:10.646Z,33.01
2023-02-27T00:48:39.216Z,33.01
2023-02-27T00:51:13.913Z,33.00
2023-02-27T00:53:43.175Z,32.79
2023-02-27T00:56:14.465Z,32.57
2023-02-27T00:58:43.331Z,32.52
2023-02-27T01:01:11.958Z,32.50
2023-02-27T01:03:41.110Z,32.46
2023-02-27T01:06:10.199Z,32.50
2023-02-27T01:08:38.918Z,32.57
2023-02-27T01:11:08.935Z,32.57
2023-02-27T01:13:38.964Z,32.59
2023-02-27T01:16:08.958Z,32.64
2023-02-27T01:18:37.537Z,32.59
2023-02-27T01:21:06.537Z,32.62
2023-02-27T01:23:36.003Z,32.61
2023-02-27T01:26:05.173Z,32.54
2023-02-27T01:28:35.888Z,32.64
2023-02-27T01:31:04.702Z,32.69
2023-02-27T01:33:34.628Z,32.71
2023-02-27T01:36:03.274Z,32.60
2023-02-27T01:38:32.229Z,32.63
2023-02-27T01:41:10.822Z,32.67
2023-02-27T01:44:01.201Z,32.63
2023-02-27T01:46:32.849Z,32.60
2023-02-27T01:49:07.657Z,32.62
2023-02-27T01:51:42.646Z,32.36
2023-02-27T01:54:11.750Z,32.18
2023-02-27T01:56:41.476Z,32.11
2023-02-27T01:59:10.881Z,31.82
2023-02-27T02:01:39.423Z,31.70
2023-02-27T02:04:32.992Z,31.60
2023-02-27T02:07:13.047Z,31.61
2023-02-27T02:09:47.457Z,31.65
2023-02-27T02:12:16.662Z,31.67
2023-02-27T02:14:48.774Z,31.58
2023-02-27T02:17:54.917Z,31.57
2023-02-27T02:21:00.115Z,31.55
2023-02-27T02:23:44.673Z,31.56
2023-02-27T02:26:33.222Z,31.54
2023-02-27T02:29:12.795Z,31.58
2023-02-27T02:31:42.760Z,31.64
2023-02-27T02:34:51.214Z,31.87
2023-02-27T02:37:38.043Z,31.90
2023-02-27T02:40:25.328Z,31.92
2023-02-27T02:43:14.002Z,31.88
2023-02-27T02:46:08.578Z,31.93
2023-02-27T02:48:37.674Z,31.96
2023-02-27T02:51:24.185Z,32.05
2023-02-27T02:54:15.021Z,32.23
2023-02-27T02:56:54.483Z,32.19
2023-02-27T03:57:07.814Z,32.16
2023-02-27T03:59:39.391Z,32.02
2023-02-27T04:02:09.605Z,31.94
2023-02-27T04:04:39.960Z,31.90
2023-02-27T04:07:37.098Z,31.87
2023-02-27T04:10:33.541Z,31.89
2023-02-27T04:13:16.040Z,31.89
2023-02-27T04:16:24.581Z,31.91
2023-02-27T04:19:35.698Z,31.87
2023-02-27T04:22:19.362Z,31.93
2023-02-27T04:25:07.703Z,31.99
2023-02-27T04:27:46.418Z,32.02
2023-02-27T04:30:25.405Z,32.01
2023-02-27T04:33:10.122Z,31.95
2023-02-27T04:35:42.548Z,31.82
2023-02-27T04:38:21.313Z,31.69
2023-02-27T04:40:55.965Z,31.68
2023-02-27T04:43:28.330Z,31.67
2023-02-27T04:46:03.702Z,31.64
2023-02-27T04:48:37.680Z,31.70
2023-02-27T04:51:20.713Z,31.82
2023-02-27T04:53:52.164Z,31.82
2023-02-27T04:56:26.815Z,31.75
2023-02-27T04:59:06.614Z,31.68
2023-02-27T05:01:40.413Z,31.71
2023-02-27T05:04:13.419Z,31.68
2023-02-27T05:06:45.363Z,31.59
2023-02-27T05:09:28.239Z,31.66
2023-02-27T05:12:18.082Z,31.82
2023-02-27T05:14:51.357Z,32.13
2023-02-27T05:17:25.149Z,32.20
2023-02-27T05:19:55.859Z,32.20
2023-02-27T05:22:30.638Z,32.13
2023-02-27T05:25:34.996Z,32.17
2023-02-27T05:28:21.770Z,31.87
2023-02-27T05:30:59.092Z,31.98
2023-02-27T05:33:46.887Z,32.28
2023-02-27T05:36:26.074Z,32.18
2023-02-27T05:39:00.882Z,32.11
2023-02-27T05:41:34.034Z,32.11
2023-02-27T05:44:10.839Z,32.14
2023-02-27T05:46:49.906Z,32.10
2023-02-27T05:50:01.820Z,32.07
2023-02-27T05:52:33.234Z,32.05
2023-02-27T05:55:31.607Z,32.04
2023-02-27T05:58:17.112Z,32.07
2023-02-27T06:01:10.167Z,32.11
2023-02-27T06:03:41.442Z,32.19
2023-02-27T06:06:15.606Z,32.32
2023-02-27T06:08:45.695Z,32.25
2023-02-27T06:11:18.989Z,31.85
2023-02-27T06:13:52.449Z,31.88
2023-02-27T06:16:23.397Z,31.85
2023-02-27T06:18:54.027Z,31.88
2023-02-27T06:21:24.874Z,31.91
2023-02-27T06:23:58.063Z,31.78
2023-02-27T06:26:29.933Z,31.80
2023-02-27T06:29:01.023Z,31.95
2023-02-27T06:31:34.257Z,31.92
2023-02-27T06:34:04.215Z,31.86
2023-02-27T06:36:35.372Z,31.98
2023-02-27T06:39:08.258Z,31.92
2023-02-27T06:41:43.238Z,31.93
2023-02-27T06:44:14.778Z,31.91
2023-02-27T06:46:45.438Z,31.86
2023-02-27T06:49:15.736Z,31.72
2023-02-27T06:51:45.461Z,31.71
2023-02-27T06:54:15.378Z,31.70
2023-02-27T06:56:49.136Z,31.80
2023-02-27T06:59:19.368Z,31.85
2023-02-27T07:01:51.109Z,31.89
2023-02-27T07:04:22.153Z,31.84
2023-02-27T07:07:33.013Z,31.75
2023-02-27T07:09:42.927Z,31.67
2023-02-27T07:12:13.476Z,31.62
2023-02-27T07:15:00.939Z,31.74
2023-02-27T07:17:32.225Z,31.90
2023-02-27T07:20:03.757Z,31.95
2023-02-27T07:22:35.964Z,31.61
2023-02-27T07:25:08.139Z,31.65
2023-02-27T07:27:40.450Z,32.03
2023-02-27T07:30:11.109Z,32.04
2023-02-27T07:32:41.841Z,32.13
2023-02-27T07:35:13.452Z,32.15
2023-02-27T07:37:44.063Z,32.09
2023-02-27T07:40:14.154Z,32.09
2023-02-27T07:42:44.676Z,32.06
2023-02-27T07:45:15.422Z,32.06
2023-02-27T07:48:01.083Z,32.12
2023-02-27T07:50:44.023Z,32.15
2023-02-27T07:53:29.998Z,32.20
2023-02-27T07:55:57.900Z,32.29
2023-02-27T07:58:41.893Z,32.38
2023-02-27T08:01:45.216Z,32.40
2023-02-27T08:04:16.346Z,32.35
2023-02-27T08:06:46.402Z,32.25
2023-02-27T08:09:16.794Z,32.20
2023-02-27T08:11:48.929Z,32.11
2023-02-27T08:14:20.128Z,32.20
2023-02-27T08:16:56.892Z,32.22
2023-02-27T08:19:27.503Z,32.40
2023-02-27T08:21:57.844Z,32.48
2023-02-27T08:24:29.268Z,32.31
2023-02-27T08:27:00.226Z,32.10
2023-02-27T08:29:31.783Z,31.98
2023-02-27T08:32:05.588Z,31.91
2023-02-27T08:34:38.158Z,31.97
2023-02-27T08:37:10.620Z,32.07
2023-02-27T08:39:42.902Z,32.64
2023-02-27T08:42:14.209Z,32.62
2023-02-27T08:44:43.867Z,32.58
2023-02-27T08:47:14.999Z,32.56
2023-02-27T08:49:46.281Z,32.55
2023-02-27T08:52:17.581Z,32.63
2023-02-27T08:54:49.979Z,32.80
2023-02-27T08:57:19.723Z,33.00
2023-02-27T08:59:50.317Z,33.03
2023-02-27T09:02:20.308Z,33.33
2023-02-27T09:04:52.034Z,33.48
2023-02-27T09:07:22.298Z,33.59
2023-02-27T09:09:52.105Z,33.96
2023-02-27T09:12:22.662Z,33.92
2023-02-27T09:14:52.812Z,34.04
2023-02-27T09:17:22.682Z,34.15
2023-02-27T09:19:57.301Z,34.20
2023-02-27T09:22:28.132Z,34.37
2023-02-27T09:24:59.827Z,34.57
2023-02-27T09:27:30.962Z,34.51
2023-02-27T09:30:06.961Z,34.26
2023-02-27T09:32:37.432Z,33.89
2023-02-27T09:35:10.443Z,33.89
2023-02-27T09:37:41.337Z,33.72
2023-02-27T09:40:31.977Z,33.71
2023-02-27T09:43:04.039Z,33.58
2023-02-27T09:45:39.754Z,33.46
2023-02-27T09:48:33.569Z,33.50
2023-02-27T09:51:03.570Z,33.49
2023-02-27T09:53:43.623Z,33.42
2023-02-27T09:56:39.578Z,33.31
2023-02-27T10:00:21.469Z,33.58
2023-02-27T10:03:44.821Z,33.64
2023-02-27T10:06:27.354Z,33.62
2023-02-27T10:09:03.097Z,33.69
2023-02-27T10:11:53.517Z,33.70
2023-02-27T10:15:17.711Z,33.81
2023-02-27T10:18:13.004Z,34.03
2023-02-27T10:21:09.079Z,33.91
2023-02-27T10:24:08.018Z,33.76
2023-02-27T10:26:41.905Z,33.74
2023-02-27T10:29:25.291Z,33.60
2023-02-27T10:32:30.136Z,33.31
2023-02-27T10:38:01.361Z,33.12
2023-02-27T10:40:31.868Z,33.06
2023-02-27T10:43:06.102Z,33.10
2023-02-27T10:45:38.797Z,33.22
2023-02-27T10:48:17.896Z,33.26
2023-02-27T10:50:52.998Z,33.03
2023-02-27T10:53:28.086Z,32.81
2023-02-27T10:56:02.633Z,32.87
2023-02-27T10:58:34.866Z,32.98
2023-02-27T11:01:06.858Z,33.05
2023-02-27T11:03:41.695Z,33.01
2023-02-27T11:06:30.866Z,33.04
2023-02-27T11:09:31.672Z,33.29
2023-02-27T11:12:28.072Z,33.21
2023-02-27T11:15:04.134Z,33.23
2023-02-27T11:17:34.953Z,33.31
2023-02-27T11:20:06.944Z,33.45
2023-02-27T11:22:36.795Z,33.57
2023-02-27T11:25:23.325Z,33.55
2023-02-27T11:27:53.485Z,33.37
2023-02-27T11:30:32.484Z,33.27
2023-02-27T11:33:02.315Z,33.09
2023-02-27T11:35:38.352Z,32.75
2023-02-27T11:38:30.813Z,32.65
2023-02-27T11:41:06.436Z,32.65
2023-02-27T11:43:50.789Z,32.68
2023-02-27T11:46:47.006Z,32.74
2023-02-27T11:49:26.618Z,32.68
2023-02-27T11:52:13.592Z,32.63
2023-02-27T11:54:44.238Z,32.71
2023-02-27T11:57:29.178Z,32.79
2023-02-27T12:00:08.486Z,32.79
2023-02-27T12:03:09.511Z,32.56
2023-02-27T12:05:44.360Z,32.58
2023-02-27T12:08:19.570Z,32.78
2023-02-27T12:11:12.420Z,32.75
2023-02-27T12:13:48.886Z,32.87
2023-02-27T12:16:52.483Z,32.78
2023-02-27T12:19:34.379Z,32.74
2023-02-27T12:22:23.850Z,32.73
2023-02-27T12:25:08.890Z,32.85
2023-02-27T12:27:56.483Z,32.90
2023-02-27T12:30:28.054Z,33.16
2023-02-27T12:33:14.124Z,33.00
2023-02-27T12:35:46.199Z,32.74
2023-02-27T12:38:15.975Z,32.64
2023-02-27T12:41:07.847Z,32.50
2023-02-27T12:44:15.697Z,32.62
2023-02-27T12:46:47.125Z,32.63
2023-02-27T12:49:45.198Z,32.50
2023-02-27T12:52:43.803Z,32.52
2023-02-27T12:55:28.630Z,32.61
2023-02-27T12:58:15.310Z,32.72
2023-02-27T13:00:55.463Z,32.70
2023-02-27T13:03:51.759Z,32.70
2023-02-27T13:06:40.610Z,32.64
2023-02-27T13:09:31.956Z,32.66
2023-02-27T13:12:12.253Z,32.70
2023-02-27T13:15:01.631Z,32.72
2023-02-27T13:17:49.610Z,32.74
2023-02-27T13:20:29.146Z,32.80
2023-02-27T13:23:21.732Z,32.84
2023-02-27T13:25:52.272Z,32.73
2023-02-27T13:28:28.364Z,32.64
2023-02-27T13:31:15.494Z,32.65
2023-02-27T13:34:09.025Z,32.64
2023-02-27T13:36:41.606Z,32.65
2023-02-27T13:39:44.708Z,32.74
2023-02-27T13:42:28.218Z,32.83
2023-02-27T13:45:05.710Z,32.60
2023-02-27T13:47:40.539Z,32.52
2023-02-27T13:50:19.899Z,32.53
2023-02-27T13:52:51.468Z,32.52
2023-02-27T13:55:37.841Z,32.49
2023-02-27T13:58:08.924Z,32.54
2023-02-27T14:00:38.858Z,32.55
2023-02-27T14:03:18.117Z,32.38
2023-02-27T14:05:49.842Z,32.31
2023-02-27T14:08:48.192Z,32.31
2023-02-27T14:11:27.716Z,32.25
2023-02-27T14:13:59.842Z,32.19
2023-02-27T14:16:42.195Z,32.14
2023-02-27T14:19:32.457Z,32.04
2023-02-27T14:22:04.667Z,31.97
2023-02-27T14:25:01.174Z,32.04
2023-02-27T14:28:03.259Z,32.06
2023-02-27T14:30:42.790Z,32.05
2023-02-27T14:33:16.759Z,32.03
2023-02-27T14:35:51.036Z,31.90
2023-02-27T14:38:21.509Z,31.98
2023-02-27T14:41:09.415Z,32.04
2023-02-27T14:43:45.931Z,32.06
2023-02-27T14:46:24.701Z,32.02
2023-02-27T14:49:03.612Z,32.00
2023-02-27T14:51:37.674Z,31.95
2023-02-27T14:54:15.150Z,31.93
2023-02-27T14:57:00.212Z,31.89
2023-02-27T14:59:35.516Z,31.88
2023-02-27T15:02:05.569Z,31.84
2023-02-27T15:04:35.687Z,31.67
2023-02-27T15:07:06.234Z,31.55
2023-02-27T15:09:53.301Z,31.48
2023-02-27T15:12:26.294Z,31.42
2023-02-27T15:15:01.361Z,31.31
2023-02-27T15:17:41.073Z,31.35
2023-02-27T15:20:32.373Z,31.32
2023-02-27T15:23:25.279Z,31.37
2023-02-27T15:25:59.410Z,31.37
2023-02-27T15:28:39.374Z,31.29
2023-02-27T15:31:11.383Z,31.32
2023-02-27T15:33:44.552Z,31.43
2023-02-27T15:36:25.084Z,31.45
2023-02-27T15:39:20.758Z,31.41
2023-02-27T15:41:55.383Z,31.48
2023-02-27T15:45:01.358Z,31.52
2023-02-27T15:47:35.633Z,31.48
2023-02-27T15:50:12.323Z,31.38
2023-02-27T15:53:07.233Z,31.52
2023-02-27T15:55:44.074Z,31.55
2023-02-27T15:58:38.774Z,31.56
2023-02-27T16:01:11.213Z,31.57
2023-02-27T16:03:46.390Z,31.51
2023-02-27T16:06:30.504Z,31.43
2023-02-27T16:09:09.348Z,31.29
2023-02-27T16:11:40.225Z,31.21
2023-02-27T16:14:45.424Z,31.15
2023-02-27T16:17:32.841Z,31.32
2023-02-27T16:23:35.909Z,31.12
2023-02-27T16:26:24.812Z,31.17
2023-02-27T16:28:56.611Z,31.22
2023-02-27T16:31:39.185Z,31.19
2023-02-27T16:34:20.718Z,31.22
2023-02-27T16:36:55.852Z,31.16
2023-02-27T16:39:27.138Z,31.08
2023-02-27T16:41:59.379Z,31.08
2023-02-27T16:44:30.969Z,31.25
2023-02-27T16:47:05.312Z,31.27
2023-02-27T16:49:41.487Z,31.26
2023-02-27T16:52:14.795Z,31.26
2023-02-27T16:54:45.390Z,31.31
2023-02-27T16:57:15.711Z,31.25
2023-02-27T16:59:45.924Z,31.16
2023-02-27T17:02:17.826Z,31.10
2023-02-27T17:04:50.774Z,31.27
2023-02-27T17:07:21.715Z,31.57
2023-02-27T17:09:52.114Z,31.36
2023-02-27T17:12:23.529Z,31.27
2023-02-27T17:14:54.578Z,31.20
2023-02-27T17:17:25.670Z,31.08
2023-02-27T17:19:55.842Z,30.94
2023-02-27T17:22:39.044Z,30.95
2023-02-27T17:25:11.137Z,30.98
2023-02-27T17:27:44.737Z,31.04
2023-02-27T17:30:29.535Z,30.98
2023-02-27T17:33:01.104Z,30.98
2023-02-27T17:35:34.218Z,31.07
2023-02-27T17:38:07.551Z,31.19
2023-02-27T17:40:39.965Z,31.27
2023-02-27T17:43:10.369Z,31.26
2023-02-27T17:45:39.984Z,31.24
2023-02-27T17:48:14.426Z,31.13
2023-02-27T17:50:45.961Z,31.00
2023-02-27T17:53:16.356Z,30.88
2023-02-27T17:55:46.256Z,30.87
2023-02-27T17:58:19.981Z,30.88
2023-02-27T18:00:49.778Z,30.92
2023-02-27T18:03:20.294Z,30.87
2023-02-27T18:05:53.791Z,30.78
2023-02-27T18:08:27.179Z,30.66
2023-02-27T18:10:56.942Z,30.55
2023-02-27T18:13:28.415Z,30.45
2023-02-27T18:16:00.512Z,30.40
2023-02-27T18:18:37.053Z,30.42
2023-02-27T18:21:21.395Z,30.49
2023-02-27T18:23:52.526Z,30.48
2023-02-27T18:26:30.595Z,30.38
2023-02-27T18:29:04.771Z,30.38
2023-02-27T18:31:38.523Z,30.47
2023-02-27T18:34:09.210Z,30.49
2023-02-27T18:36:39.773Z,30.40
2023-02-27T18:39:10.117Z,30.34
2023-02-27T18:41:44.162Z,30.33
2023-02-27T18:44:14.222Z,30.35
2023-02-27T18:46:45.766Z,30.36
2023-02-27T18:49:20.521Z,30.41
2023-02-27T18:51:50.361Z,30.47
2023-02-27T18:54:28.531Z,30.36
2023-02-27T18:57:07.165Z,30.30
2023-02-27T18:59:48.097Z,30.29
2023-02-27T19:02:20.258Z,30.15
2023-02-27T19:04:59.085Z,30.09
2023-02-27T19:07:36.001Z,30.10
2023-02-27T19:10:11.309Z,29.84
2023-02-27T19:12:41.345Z,29.67
2023-02-27T19:15:24.145Z,29.61
2023-02-27T19:17:57.775Z,29.50
2023-02-27T19:20:27.602Z,29.39
2023-02-27T19:23:13.440Z,29.26
2023-02-27T19:25:49.628Z,29.12
2023-02-27T19:28:19.046Z,29.10
2023-02-27T19:30:48.756Z,29.19
2023-02-27T19:33:18.520Z,29.21
2023-02-27T19:35:48.433Z,29.16
2023-02-27T19:38:19.522Z,29.07
2023-02-27T19:40:51.898Z,29.05
2023-02-27T19:43:21.645Z,29.01
2023-02-27T19:45:58.802Z,29.01
2023-02-27T19:48:43.967Z,29.05
2023-02-27T19:51:14.409Z,29.04
2023-02-27T19:53:46.944Z,29.13
2023-02-27T19:56:24.539Z,29.05
2023-02-27T19:58:55.374Z,29.03
2023-02-27T20:01:27.031Z,28.90
2023-02-27T20:04:08.649Z,28.91
2023-02-27T20:06:42.522Z,28.94
2023-02-27T20:09:14.940Z,28.99
2023-02-27T20:11:53.215Z,28.85
2023-02-27T20:14:26.076Z,28.84
2023-02-27T20:16:55.627Z,29.00
2023-02-27T20:19:26.863Z,28.90
2023-02-27T20:21:58.594Z,28.95
2023-02-27T20:24:27.912Z,29.03
2023-02-27T20:26:59.787Z,29.22
2023-02-27T20:29:29.286Z,29.25
2023-02-27T20:32:01.095Z,29.35
2023-02-27T20:34:31.728Z,29.32
2023-02-27T20:37:05.085Z,29.37
2023-02-27T20:39:35.586Z,29.35
2023-02-27T20:42:08.992Z,29.38
2023-02-27T20:44:41.263Z,29.39
2023-02-27T20:47:15.513Z,29.26
2023-02-27T20:49:49.316Z,29.25
2023-02-27T20:52:20.003Z,29.10
2023-02-27T20:54:52.508Z,29.09
2023-02-27T20:57:23.439Z,29.07
2023-02-27T20:59:52.652Z,29.03
2023-02-27T21:02:25.900Z,28.76
2023-02-27T21:04:55.107Z,28.73
2023-02-27T21:07:33.645Z,28.75
2023-02-27T21:10:06.063Z,28.82
2023-02-27T21:12:48.223Z,28.83
2023-02-27T21:15:29.298Z,28.81
2023-02-27T21:18:04.943Z,28.82
2023-02-27T21:20:36.403Z,28.82
2023-02-27T21:23:06.182Z,28.84
2023-02-27T21:25:45.320Z,28.90
2023-02-27T21:28:20.814Z,28.92
2023-02-27T21:30:55.199Z,28.85
2023-02-27T21:33:25.375Z,28.83
2023-02-27T21:35:54.330Z,28.69
2023-02-27T21:38:23.631Z,28.63
2023-02-27T21:40:54.943Z,28.64
2023-02-27T21:43:25.688Z,28.66
2023-02-27T21:46:05.049Z,28.67
2023-02-27T21:48:35.433Z,28.75
2023-02-27T21:51:06.058Z,28.78
2023-02-27T21:53:37.748Z,28.86
2023-02-27T21:56:09.251Z,28.79
2023-02-27T21:58:40.734Z,28.80
2023-02-27T22:01:17.226Z,28.83
2023-02-27T22:03:51.781Z,28.80
2023-02-27T22:06:22.554Z,28.73
2023-02-27T22:08:56.893Z,28.52
2023-02-27T22:11:28.232Z,28.57
2023-02-27T22:13:57.760Z,28.72
2023-02-27T22:16:28.785Z,28.97
2023-02-27T22:26:48.289Z,29.09
2023-02-27T22:29:20.571Z,28.89
2023-02-27T22:31:50.141Z,28.96
2023-02-27T22:34:21.202Z,28.93
2023-02-27T22:36:53.008Z,28.93
2023-02-27T22:39:29.267Z,28.94
2023-02-27T22:41:58.668Z,28.88
2023-02-27T22:44:30.187Z,28.92
2023-02-27T22:47:01.150Z,28.96
2023-02-27T22:49:30.323Z,29.05
2023-02-27T22:52:05.235Z,29.04
2023-02-27T22:54:34.695Z,28.88
2023-02-27T22:57:06.758Z,28.75
2023-02-27T22:59:39.266Z,28.56
2023-02-27T23:02:08.953Z,28.53
2023-02-27T23:04:38.532Z,28.35
2023-02-27T23:07:08.216Z,28.33
2023-02-27T23:09:37.540Z,28.28
2023-02-27T23:12:07.710Z,28.27
2023-02-27T23:14:41.713Z,28.33
2023-02-27T23:17:10.637Z,28.25
2023-02-27T23:19:41.276Z,28.33
2023-02-27T23:22:11.419Z,28.38
2023-02-27T23:24:42.333Z,28.43
2023-02-27T23:27:25.349Z,28.43
2023-02-27T23:29:56.118Z,28.43
2023-02-27T23:32:28.638Z,28.25
2023-02-27T23:35:01.714Z,28.36
2023-02-27T23:37:32.455Z,28.17
2023-02-27T23:40:01.803Z,28.06
2023-02-27T23:42:50.975Z,27.97
2023-02-27T23:45:24.393Z,27.86
2023-02-27T23:47:56.308Z,27.94
2023-02-27T23:50:28.739Z,28.21
2023-02-27T23:53:01.319Z,28.26
2023-02-27T23:55:33.076Z,28.24
2023-02-27T23:58:09.817Z,28.23
